Airfield :
LOGIN :

Register | Disclaimer

   EN    FR    IT 

 










Legend :    VFR   Marginal VFR   IFR   Intensive IFR   Very Intensive IFR
Visi :
Ceiling :
>= 8 km
>= 3000ft
5 to 8 km
1000 to 3000 ft
1500m to 5 km
500 to 1000 ft
800 to 1500m
200 to 500 ft
< 800m
< 200 ft
Symbols :   Thunderstorms  Fog  Heavy snow  Heavy precipitations  Wind > 20 kt
SIGMETs :     Misc.  Thunderstorms  Icing  Turbulence  Mountain Waves  Volcanic Ashes







- Airport Elevation : -11 ft
- IATA code : AMS


EHAM - Amsterdam Schiphol

CURRENT METAR :
  • 160425Z 17008KT CAVOK 02/00 Q1024 NOSIG

EXPIRED METARs :
  • 160355Z 17007KT CAVOK 02/M00 Q1024 NOSIG
  • 160325Z 18006KT CAVOK 01/M01 Q1024 NOSIG
  • 160255Z 18005KT CAVOK 03/01 Q1024 NOSIG
  • 160225Z 17006KT CAVOK 03/01 Q1024 NOSIG
  • 160155Z 16006KT CAVOK 03/00 Q1024 NOSIG

TAF TAF EHAM
Valid from the 16 at 00:00 until the 17 at 06:00 UTC


152315Z 1600/1706 18008KT CAVOK
PROB40 1612/1617 SCT008 BKN015
PROB30
TEMPO 1703/1706 4000 BR
No reported NOTAMs for that airfield.



MET'MAP, your aeronautical weather chart ! - Copyright ORBIFLY December 2007 - Disclaimer

ORBIFLY MET'MAP TEAM :

Programming & Development : Alexandra Zaïnal
Concept & Development : Baudouin d'Aumeries
Co-Development & Prog : Marc-Olivier Méhu
Technical & hardware support : Manuel Goepfert

Contact : metmap@orbifly.com




SOURCES & CREDITS :

   NOAA